createdAt,value
2019-03-23T00:01:52.349Z,2.75
2019-03-23T00:04:25.388Z,2.69
2019-03-23T00:06:56.159Z,2.79
2019-03-23T00:09:27.542Z,2.77
2019-03-23T00:11:58.578Z,2.74
2019-03-23T00:14:29.586Z,2.68
2019-03-23T00:17:00.287Z,2.61
2019-03-23T00:19:31.675Z,2.52
2019-03-23T00:22:04.163Z,2.47
2019-03-23T00:24:35.367Z,2.41
2019-03-23T00:27:06.252Z,2.46
2019-03-23T00:29:37.218Z,2.52
2019-03-23T00:32:09.389Z,2.46
2019-03-23T00:34:40.239Z,2.35
2019-03-23T00:37:12.417Z,2.28
2019-03-23T00:39:43.295Z,2.23
2019-03-23T00:42:14.251Z,2.31
2019-03-23T00:44:45.363Z,2.23
2019-03-23T00:47:16.435Z,2.35
2019-03-23T00:49:47.477Z,2.33
2019-03-23T00:52:18.523Z,2.26
2019-03-23T00:54:49.512Z,2.29
2019-03-23T00:57:20.584Z,2.22
2019-03-23T00:59:51.889Z,2.11
2019-03-23T01:02:22.938Z,2.04
2019-03-23T01:04:53.835Z,1.98
2019-03-23T01:07:24.806Z,1.92
2019-03-23T01:09:55.786Z,1.87
2019-03-23T01:12:26.752Z,1.81
2019-03-23T01:14:57.816Z,1.76
2019-03-23T01:17:29.199Z,1.79
2019-03-23T01:19:59.901Z,1.80
2019-03-23T01:22:31.837Z,1.75
2019-03-23T01:25:02.812Z,1.77
2019-03-23T01:27:33.795Z,1.84
2019-03-23T01:30:05.180Z,1.87
2019-03-23T01:32:36.009Z,1.78
2019-03-23T01:35:08.434Z,1.74
2019-03-23T01:37:39.287Z,1.77
2019-03-23T01:40:10.575Z,1.71
2019-03-23T01:42:41.736Z,1.64
2019-03-23T01:45:14.160Z,1.54
2019-03-23T01:47:45.290Z,1.41
2019-03-23T01:50:16.246Z,1.36
2019-03-23T01:52:47.427Z,1.35
2019-03-23T01:55:18.370Z,1.36
2019-03-23T01:57:49.225Z,1.36
2019-03-23T02:00:20.016Z,1.33
2019-03-23T02:02:51.124Z,1.27
2019-03-23T02:05:22.107Z,1.22
2019-03-23T02:07:52.918Z,1.18
2019-03-23T02:10:23.782Z,1.11
2019-03-23T02:12:54.524Z,1.09
2019-03-23T02:15:25.254Z,1.07
2019-03-23T02:17:56.917Z,1.07
2019-03-23T02:20:27.747Z,1.10
2019-03-23T02:22:58.867Z,1.11
2019-03-23T02:25:29.872Z,1.01
2019-03-23T02:28:01.137Z,0.90
2019-03-23T02:30:32.393Z,0.83
2019-03-23T02:33:03.437Z,0.76
2019-03-23T02:35:34.538Z,0.76
2019-03-23T02:38:05.635Z,0.79
2019-03-23T02:40:36.821Z,0.90
2019-03-23T02:43:07.945Z,0.80
2019-03-23T02:45:39.057Z,0.70
2019-03-23T02:48:09.858Z,0.66
2019-03-23T02:50:40.699Z,0.59
2019-03-23T02:53:11.871Z,0.58
2019-03-23T02:55:42.811Z,0.58
2019-03-23T02:58:13.776Z,0.54
2019-03-23T03:00:44.890Z,0.50
2019-03-23T03:03:15.827Z,0.44
2019-03-23T03:05:46.795Z,0.43
2019-03-23T03:08:17.817Z,0.40
2019-03-23T03:10:48.623Z,0.44
2019-03-23T03:13:20.078Z,0.40
2019-03-23T03:15:50.761Z,0.37
2019-03-23T03:18:21.818Z,0.34
2019-03-23T03:20:52.764Z,0.30
2019-03-23T03:23:23.531Z,0.27
2019-03-23T03:25:54.463Z,0.24
2019-03-23T03:28:25.438Z,0.21
2019-03-23T03:30:56.253Z,0.19
2019-03-23T03:33:27.133Z,0.17
2019-03-23T03:35:58.209Z,0.15
2019-03-23T03:38:29.152Z,0.19
2019-03-23T03:41:00.212Z,0.13
2019-03-23T03:43:30.959Z,0.11
2019-03-23T03:46:01.956Z,0.09
2019-03-23T03:48:32.934Z,0.07
2019-03-23T03:51:03.792Z,0.03
2019-03-23T03:53:34.850Z,0.01
2019-03-23T03:56:06.170Z,0.01
2019-03-23T03:58:37.133Z,0.03
2019-03-23T04:01:08.015Z,0.03
2019-03-23T04:03:38.800Z,-0.02
2019-03-23T04:06:09.917Z,-0.05
2019-03-23T04:08:42.251Z,-0.07
2019-03-23T04:11:13.405Z,-0.06
2019-03-23T04:13:44.627Z,-0.09
2019-03-23T04:16:15.462Z,-0.12
2019-03-23T04:18:46.881Z,-0.19
2019-03-23T04:21:17.590Z,-0.18
2019-03-23T04:23:48.474Z,-0.23
2019-03-23T04:26:19.428Z,-0.24
2019-03-23T04:28:50.333Z,-0.28
2019-03-23T04:31:21.334Z,-0.32
2019-03-23T04:33:52.272Z,-0.33
2019-03-23T04:36:23.251Z,-0.31
2019-03-23T04:38:54.356Z,-0.33
2019-03-23T04:41:25.272Z,-0.38
2019-03-23T04:43:56.446Z,-0.38
2019-03-23T04:46:27.143Z,-0.43
2019-03-23T04:48:57.992Z,-0.47
2019-03-23T04:51:29.032Z,-0.49
2019-03-23T04:54:00.022Z,-0.45
2019-03-23T04:56:30.759Z,-0.50
2019-03-23T04:59:01.796Z,-0.50
2019-03-23T05:01:32.702Z,-0.56
2019-03-23T05:04:03.624Z,-0.57
2019-03-23T05:06:34.563Z,-0.58
2019-03-23T05:09:09.602Z,-0.49
2019-03-23T05:11:40.548Z,-0.60
2019-03-23T05:14:11.737Z,-0.63
2019-03-23T05:16:42.836Z,-0.63
2019-03-23T05:19:13.851Z,-0.63
2019-03-23T05:21:44.801Z,-0.62
2019-03-23T05:24:16.167Z,-0.63
2019-03-23T05:26:47.362Z,-0.61
2019-03-23T05:29:18.574Z,-0.60
2019-03-23T05:31:49.897Z,-0.57
2019-03-23T05:34:21.184Z,-0.55
2019-03-23T05:36:52.277Z,-0.53
2019-03-23T05:39:23.333Z,-0.52
2019-03-23T05:41:54.421Z,-0.48
2019-03-23T05:44:25.428Z,-0.45
2019-03-23T05:46:56.208Z,-0.41
2019-03-23T05:49:27.374Z,-0.35
2019-03-23T05:51:58.359Z,-0.30
2019-03-23T05:54:29.576Z,-0.18
2019-03-23T05:57:00.606Z,0.02
2019-03-23T05:59:31.833Z,0.02
2019-03-23T06:02:02.965Z,0.14
2019-03-23T06:04:34.154Z,0.24
2019-03-23T06:07:05.197Z,0.32
2019-03-23T06:09:36.118Z,0.53
2019-03-23T06:12:07.046Z,0.68
2019-03-23T06:14:38.001Z,0.83
2019-03-23T06:17:09.010Z,0.82
2019-03-23T06:19:40.075Z,1.06
2019-03-23T06:22:10.751Z,1.27
2019-03-23T06:24:41.605Z,1.44
2019-03-23T06:27:12.882Z,1.70
2019-03-23T06:29:44.043Z,1.91
2019-03-23T06:32:14.884Z,2.12
2019-03-23T06:34:45.822Z,2.41
2019-03-23T06:37:16.864Z,2.66
2019-03-23T06:39:48.043Z,2.98
2019-03-23T06:42:19.848Z,3.27
2019-03-23T06:44:50.816Z,3.50
2019-03-23T06:47:21.792Z,3.80
2019-03-23T06:49:52.688Z,4.09
2019-03-23T06:52:23.684Z,4.39
2019-03-23T06:54:54.678Z,4.63
2019-03-23T06:57:26.006Z,4.97
2019-03-23T06:59:57.000Z,5.33
2019-03-23T07:02:28.107Z,5.56
2019-03-23T07:04:58.838Z,6.10
2019-03-23T07:07:30.898Z,6.33
2019-03-23T07:10:02.128Z,6.51
2019-03-23T07:12:35.935Z,6.78
2019-03-23T07:15:19.098Z,7.24
2019-03-23T07:17:41.013Z,7.54
2019-03-23T07:20:12.789Z,8.05
2019-03-23T07:22:43.524Z,8.64
2019-03-23T07:25:14.588Z,9.06
2019-03-23T07:27:45.618Z,9.45
2019-03-23T07:30:16.974Z,9.89
2019-03-23T07:32:48.208Z,10.71
2019-03-23T07:35:19.387Z,11.56
2019-03-23T07:37:50.773Z,12.12
2019-03-23T07:40:21.753Z,12.96
2019-03-23T07:42:52.970Z,13.97
2019-03-23T07:45:24.092Z,14.72
2019-03-23T07:47:55.228Z,15.51
2019-03-23T07:50:26.414Z,16.10
2019-03-23T07:52:57.536Z,17.01
2019-03-23T07:55:28.716Z,17.01
2019-03-23T07:57:59.726Z,17.23
2019-03-23T08:00:30.894Z,18.12
2019-03-23T08:03:02.218Z,18.35
2019-03-23T08:05:33.354Z,19.16
2019-03-23T08:08:04.648Z,19.51
2019-03-23T08:10:35.984Z,20.42
2019-03-23T08:13:06.964Z,20.52
2019-03-23T08:15:38.186Z,21.16
2019-03-23T08:18:09.338Z,21.72
2019-03-23T08:20:40.288Z,22.29
2019-03-23T08:23:11.655Z,23.27
2019-03-23T08:25:42.790Z,23.58
2019-03-23T08:28:14.003Z,23.77
2019-03-23T08:30:44.907Z,23.95
2019-03-23T08:33:18.170Z,24.90
2019-03-23T08:35:49.402Z,24.30
2019-03-23T08:38:20.561Z,23.41
2019-03-23T08:40:51.532Z,24.07
2019-03-23T08:43:22.767Z,25.31
2019-03-23T08:45:54.039Z,25.77
2019-03-23T08:48:25.472Z,25.54
2019-03-23T08:50:56.792Z,24.32
2019-03-23T08:53:28.748Z,24.72
2019-03-23T08:55:59.911Z,24.35
2019-03-23T08:58:30.945Z,25.75
2019-03-23T09:01:02.062Z,25.90
2019-03-23T09:03:33.153Z,27.21
2019-03-23T09:06:04.355Z,26.70
2019-03-23T09:08:35.466Z,28.52
2019-03-23T09:11:06.749Z,28.83
2019-03-23T09:13:40.823Z,29.77
2019-03-23T09:16:10.598Z,30.30
2019-03-23T09:18:42.269Z,30.31
2019-03-23T09:21:13.343Z,29.88
2019-03-23T09:23:44.512Z,29.09
2019-03-23T09:26:15.877Z,30.09
2019-03-23T09:28:47.822Z,30.73
2019-03-23T09:31:19.087Z,32.32
2019-03-23T09:33:51.291Z,32.81
2019-03-23T09:36:23.604Z,33.11
2019-03-23T09:38:55.056Z,32.02
2019-03-23T09:41:26.052Z,32.58
2019-03-23T09:43:57.195Z,34.26
2019-03-23T09:46:28.282Z,34.64
2019-03-23T09:49:00.599Z,33.91
2019-03-23T09:51:31.542Z,33.71
2019-03-23T09:54:02.765Z,34.06
2019-03-23T09:56:34.083Z,34.36
2019-03-23T09:59:05.046Z,34.10
2019-03-23T10:01:36.121Z,35.78
2019-03-23T10:04:07.371Z,36.31
2019-03-23T10:06:38.432Z,36.15
2019-03-23T10:09:09.458Z,35.91
2019-03-23T10:11:40.938Z,36.46
2019-03-23T10:14:12.117Z,37.71
2019-03-23T10:16:41.923Z,36.64
2019-03-23T10:19:11.550Z,38.66
2019-03-23T10:21:41.126Z,37.62
2019-03-23T10:24:12.167Z,38.48
2019-03-23T10:26:42.029Z,38.62
2019-03-23T10:29:13.132Z,39.54
2019-03-23T10:31:44.458Z,39.90
2019-03-23T10:34:15.251Z,38.47
2019-03-23T10:36:46.110Z,37.59
2019-03-23T10:39:16.033Z,35.71
2019-03-23T10:41:47.250Z,36.92
2019-03-23T10:44:18.249Z,38.30
2019-03-23T10:46:49.367Z,38.40
2019-03-23T10:49:20.461Z,38.57
2019-03-23T10:51:50.236Z,35.43
2019-03-23T10:54:22.344Z,37.37
2019-03-23T10:56:53.162Z,34.94
2019-03-23T10:59:24.008Z,35.26
2019-03-23T11:01:54.991Z,34.20
2019-03-23T11:04:25.750Z,34.13
2019-03-23T11:06:56.985Z,33.96
2019-03-23T11:09:26.591Z,34.42
2019-03-23T11:11:56.230Z,36.02
2019-03-23T11:14:29.520Z,36.10
2019-03-23T11:16:59.158Z,35.31
2019-03-23T11:19:28.899Z,35.60
2019-03-23T11:21:58.363Z,37.42
2019-03-23T11:24:28.478Z,37.69
2019-03-23T11:26:58.602Z,38.31
2019-03-23T11:29:29.805Z,37.03
2019-03-23T11:32:00.943Z,37.07
2019-03-23T11:34:32.257Z,38.29
2019-03-23T11:37:03.636Z,39.90
2019-03-23T11:39:34.783Z,40.68
2019-03-23T11:42:05.895Z,41.43
2019-03-23T11:44:35.517Z,40.57
2019-03-23T11:47:06.251Z,38.42
2019-03-23T11:49:37.353Z,36.08
2019-03-23T11:52:08.163Z,37.35
2019-03-23T11:54:38.944Z,38.92
2019-03-23T11:57:08.658Z,39.77
2019-03-23T11:59:38.232Z,40.32
2019-03-23T12:02:09.204Z,40.57
2019-03-23T12:04:40.217Z,39.88
2019-03-23T12:07:11.494Z,38.63
2019-03-23T12:09:42.610Z,38.41
2019-03-23T12:12:13.681Z,35.85
2019-03-23T12:14:45.002Z,38.02
2019-03-23T12:17:16.114Z,38.30
2019-03-23T12:19:47.394Z,38.23
2019-03-23T12:22:18.483Z,38.32
2019-03-23T12:24:48.167Z,38.04
2019-03-23T12:27:19.025Z,38.68
2019-03-23T12:29:50.081Z,40.72
2019-03-23T12:32:21.246Z,40.64
2019-03-23T12:34:52.388Z,39.49
2019-03-23T12:37:23.346Z,38.92
2019-03-23T12:39:53.171Z,39.69
2019-03-23T12:42:24.936Z,39.68
2019-03-23T12:44:56.091Z,40.47
2019-03-23T12:47:28.147Z,40.67
2019-03-23T12:49:59.570Z,40.70
2019-03-23T12:52:31.664Z,41.51
2019-03-23T12:55:02.709Z,40.80
2019-03-23T12:57:33.955Z,40.83
2019-03-23T13:00:03.938Z,40.12
2019-03-23T13:02:33.703Z,40.33
2019-03-23T13:05:04.768Z,39.80
2019-03-23T13:07:34.577Z,40.71
2019-03-23T13:10:06.276Z,39.08
2019-03-23T13:12:37.373Z,39.63
2019-03-23T13:15:07.531Z,38.11
2019-03-23T13:17:37.071Z,38.03
2019-03-23T13:20:08.835Z,37.27
2019-03-23T13:22:40.308Z,37.90
2019-03-23T13:25:11.274Z,37.30
2019-03-23T13:27:42.492Z,36.15
2019-03-23T13:30:14.250Z,38.86
2019-03-23T13:32:45.477Z,40.03
2019-03-23T13:35:16.720Z,40.90
2019-03-23T13:37:47.606Z,41.34
2019-03-23T13:40:18.919Z,40.04
2019-03-23T13:42:50.000Z,36.18
2019-03-23T13:45:21.157Z,35.20
2019-03-23T13:47:52.299Z,35.33
2019-03-23T13:50:28.476Z,34.19
2019-03-23T13:52:57.978Z,34.80
2019-03-23T13:55:31.213Z,35.93
2019-03-23T13:58:12.534Z,35.64
2019-03-23T14:00:44.760Z,33.50
2019-03-23T14:03:15.819Z,33.20
2019-03-23T14:05:46.793Z,33.48
2019-03-23T14:08:17.784Z,32.96
2019-03-23T14:10:49.652Z,32.73
2019-03-23T14:13:20.629Z,30.70
2019-03-23T14:15:51.832Z,31.27
2019-03-23T14:18:22.936Z,31.23
2019-03-23T14:20:54.287Z,31.20
2019-03-23T14:23:25.622Z,29.08
2019-03-23T14:25:56.750Z,30.24
2019-03-23T14:28:28.822Z,31.44
2019-03-23T14:31:00.045Z,32.20
2019-03-23T14:33:32.902Z,31.39
2019-03-23T14:36:04.429Z,30.25
2019-03-23T14:38:35.903Z,31.73
2019-03-23T14:41:07.368Z,31.05
2019-03-23T14:43:38.980Z,30.68
2019-03-23T14:46:10.075Z,29.89
2019-03-23T14:48:45.497Z,26.61
2019-03-23T14:51:16.550Z,26.29
2019-03-23T14:53:47.824Z,26.15
2019-03-23T14:56:18.855Z,24.86
2019-03-23T14:58:49.742Z,25.35
2019-03-23T15:01:21.078Z,25.50
2019-03-23T15:03:52.264Z,24.53
2019-03-23T15:06:23.682Z,24.69
2019-03-23T15:08:56.167Z,24.70
2019-03-23T15:11:27.253Z,23.49
2019-03-23T15:13:58.756Z,22.76
2019-03-23T15:16:29.869Z,22.83
2019-03-23T15:19:02.068Z,22.84
2019-03-23T15:21:33.089Z,22.65
2019-03-23T15:24:05.663Z,22.60
2019-03-23T15:26:36.569Z,22.59
2019-03-23T15:29:08.526Z,22.60
2019-03-23T15:31:39.948Z,22.36
2019-03-23T15:34:11.953Z,21.97
2019-03-23T15:36:43.058Z,22.01
2019-03-23T15:39:14.507Z,22.05
2019-03-23T15:41:45.484Z,21.87
2019-03-23T15:44:16.549Z,21.55
2019-03-23T15:46:47.704Z,21.32
2019-03-23T15:49:18.939Z,21.59
2019-03-23T15:51:52.587Z,21.68
2019-03-23T15:54:23.557Z,21.16
2019-03-23T15:56:54.529Z,20.89
2019-03-23T15:59:26.018Z,21.02
2019-03-23T16:01:57.548Z,20.99
2019-03-23T16:04:29.060Z,20.47
2019-03-23T16:07:00.333Z,20.85
2019-03-23T16:09:32.320Z,20.80
2019-03-23T16:12:03.541Z,20.60
2019-03-23T16:14:34.680Z,20.39
2019-03-23T16:17:05.791Z,20.38
2019-03-23T16:19:37.073Z,20.21
2019-03-23T16:22:08.271Z,20.22
2019-03-23T16:24:40.544Z,20.04
2019-03-23T16:27:11.588Z,19.91
2019-03-23T16:29:42.717Z,19.80
2019-03-23T16:32:13.999Z,19.77
2019-03-23T16:34:45.259Z,19.72
2019-03-23T16:37:16.157Z,19.58
2019-03-23T16:39:47.357Z,19.46
2019-03-23T16:42:18.662Z,19.40
2019-03-23T16:44:49.605Z,19.29
2019-03-23T16:47:20.783Z,19.15
2019-03-23T16:49:52.014Z,19.08
2019-03-23T16:52:23.256Z,18.93
2019-03-23T16:54:54.374Z,18.83
2019-03-23T16:57:25.741Z,18.41
2019-03-23T16:59:56.797Z,18.51
2019-03-23T17:02:27.944Z,18.34
2019-03-23T17:04:59.076Z,18.32
2019-03-23T17:07:30.311Z,18.15
2019-03-23T17:10:01.710Z,17.98
2019-03-23T17:12:33.779Z,17.87
2019-03-23T17:15:05.425Z,17.76
2019-03-23T17:17:36.353Z,17.64
2019-03-23T17:20:13.219Z,17.52
2019-03-23T17:22:44.222Z,17.39
2019-03-23T17:25:15.486Z,17.25
2019-03-23T17:27:46.479Z,17.10
2019-03-23T17:30:17.703Z,16.97
2019-03-23T17:32:50.604Z,16.79
2019-03-23T17:35:21.794Z,16.64
2019-03-23T17:37:53.014Z,16.51
2019-03-23T17:40:24.503Z,16.33
2019-03-23T17:43:05.354Z,16.12
2019-03-23T17:45:29.639Z,16.03
2019-03-23T17:48:00.657Z,15.85
2019-03-23T17:50:32.020Z,15.67
2019-03-23T17:53:03.229Z,15.52
2019-03-23T17:55:34.440Z,15.31
2019-03-23T17:58:05.927Z,15.15
2019-03-23T18:00:37.000Z,15.05
2019-03-23T18:03:08.147Z,14.90
2019-03-23T18:05:41.091Z,14.77
2019-03-23T18:08:12.177Z,14.60
2019-03-23T18:10:43.361Z,14.47
2019-03-23T18:13:16.818Z,14.34
2019-03-23T18:15:47.153Z,14.17
2019-03-23T18:18:18.237Z,14.00
2019-03-23T18:20:49.774Z,13.85
2019-03-23T18:23:21.038Z,13.71
2019-03-23T18:25:51.986Z,13.54
2019-03-23T18:28:23.222Z,13.46
2019-03-23T18:30:54.866Z,13.34
2019-03-23T18:33:25.971Z,13.21
2019-03-23T18:35:57.922Z,13.08
2019-03-23T18:38:29.124Z,12.90
2019-03-23T18:41:01.379Z,12.74
2019-03-23T18:43:34.432Z,12.69
2019-03-23T18:46:06.011Z,12.58
2019-03-23T18:48:37.106Z,12.45
2019-03-23T18:51:08.132Z,12.39
2019-03-23T18:53:39.234Z,12.24
2019-03-23T18:56:11.405Z,12.07
2019-03-23T18:58:42.588Z,11.88
2019-03-23T19:01:14.899Z,11.79
2019-03-23T19:03:46.162Z,11.67
2019-03-23T19:06:18.093Z,11.53
2019-03-23T19:08:49.775Z,11.31
2019-03-23T19:11:21.360Z,11.19
2019-03-23T19:13:52.444Z,11.06
2019-03-23T19:16:23.440Z,10.94
2019-03-23T19:18:54.853Z,10.83
2019-03-23T19:21:25.915Z,10.68
2019-03-23T19:23:57.020Z,10.56
2019-03-23T19:26:28.342Z,10.43
2019-03-23T19:28:59.413Z,10.43
2019-03-23T19:31:30.596Z,10.34
2019-03-23T19:34:01.748Z,10.24
2019-03-23T19:36:33.101Z,10.21
2019-03-23T19:39:06.063Z,10.14
2019-03-23T19:41:37.247Z,10.05
2019-03-23T19:44:09.004Z,9.95
2019-03-23T19:46:40.740Z,9.96
2019-03-23T19:49:11.771Z,9.94
2019-03-23T19:51:43.234Z,9.87
2019-03-23T19:54:14.459Z,9.74
2019-03-23T19:56:46.386Z,9.69
2019-03-23T19:59:17.657Z,9.57
2019-03-23T20:01:48.951Z,9.47
2019-03-23T20:04:20.136Z,9.47
2019-03-23T20:06:51.370Z,9.40
2019-03-23T20:09:23.309Z,9.25
2019-03-23T20:11:55.200Z,9.05
2019-03-23T20:14:26.300Z,9.02
2019-03-23T20:16:58.507Z,8.96
2019-03-23T20:19:29.498Z,8.85
2019-03-23T20:22:00.821Z,8.86
2019-03-23T20:24:31.960Z,8.83
2019-03-23T20:27:03.551Z,8.69
2019-03-23T20:29:34.755Z,8.51
2019-03-23T20:32:08.474Z,8.46
2019-03-23T20:34:39.829Z,8.44
2019-03-23T20:37:10.829Z,8.39
2019-03-23T20:39:42.095Z,8.30
2019-03-23T20:42:14.080Z,8.22
2019-03-23T20:44:45.651Z,8.12
2019-03-23T20:47:17.251Z,7.99
2019-03-23T20:49:48.750Z,7.91
2019-03-23T20:52:20.828Z,7.94
2019-03-23T20:54:52.109Z,7.95
2019-03-23T20:57:24.379Z,7.85
2019-03-23T20:59:56.167Z,7.79
2019-03-23T21:02:27.505Z,7.70
2019-03-23T21:04:58.748Z,7.60
2019-03-23T21:07:30.610Z,7.46
2019-03-23T21:10:02.121Z,7.45
2019-03-23T21:12:34.147Z,7.37
2019-03-23T21:15:05.458Z,7.25
2019-03-23T21:17:50.439Z,7.28
2019-03-23T21:20:10.520Z,7.19
2019-03-23T21:22:41.822Z,7.07
2019-03-23T21:25:13.289Z,6.94
2019-03-23T21:27:44.531Z,6.85
2019-03-23T21:30:16.530Z,6.83
2019-03-23T21:32:47.782Z,6.81
2019-03-23T21:35:19.385Z,6.75
2019-03-23T21:37:51.459Z,6.74
2019-03-23T21:40:22.613Z,6.68
2019-03-23T21:42:55.165Z,6.64
2019-03-23T21:45:26.607Z,6.62
2019-03-23T21:47:58.284Z,6.65
2019-03-23T21:50:30.275Z,6.57
2019-03-23T21:53:01.515Z,6.48
2019-03-23T21:55:36.064Z,6.43
2019-03-23T21:58:07.435Z,6.34
2019-03-23T22:00:39.270Z,6.29
2019-03-23T22:03:10.550Z,6.31
2019-03-23T22:05:41.736Z,6.30
2019-03-23T22:08:12.931Z,6.29
2019-03-23T22:10:44.101Z,6.25
2019-03-23T22:13:15.334Z,6.22
2019-03-23T22:15:46.448Z,6.12
2019-03-23T22:18:17.587Z,6.03
2019-03-23T22:20:48.904Z,5.96
2019-03-23T22:23:22.384Z,5.87
2019-03-23T22:25:53.658Z,5.81
2019-03-23T22:28:24.739Z,5.79
2019-03-23T22:30:56.044Z,5.70
2019-03-23T22:33:28.235Z,5.59
2019-03-23T22:35:59.700Z,5.60
2019-03-23T22:38:31.616Z,5.61
2019-03-23T22:41:02.681Z,5.56
2019-03-23T22:43:33.825Z,5.53
2019-03-23T22:46:06.233Z,5.48
2019-03-23T22:48:37.269Z,5.42
2019-03-23T22:51:08.489Z,5.35
2019-03-23T22:53:39.490Z,5.33
2019-03-23T22:56:10.655Z,5.24
2019-03-23T22:58:42.117Z,5.21
2019-03-23T23:01:13.356Z,5.15
2019-03-23T23:03:44.544Z,5.08
2019-03-23T23:06:15.800Z,5.05
2019-03-23T23:08:47.280Z,4.99
2019-03-23T23:11:18.768Z,4.89
2019-03-23T23:13:50.659Z,4.85
2019-03-23T23:16:21.948Z,4.90
2019-03-23T23:18:54.008Z,4.89
2019-03-23T23:21:25.291Z,4.87
2019-03-23T23:23:57.551Z,4.88
2019-03-23T23:26:29.065Z,4.88
2019-03-23T23:29:00.676Z,4.85
2019-03-23T23:31:31.976Z,4.80
2019-03-23T23:34:04.094Z,4.72
2019-03-23T23:36:35.290Z,4.55
2019-03-23T23:39:07.886Z,4.56
2019-03-23T23:41:38.865Z,4.52
2019-03-23T23:44:10.344Z,4.48
2019-03-23T23:46:41.348Z,4.46
2019-03-23T23:49:13.109Z,4.41
2019-03-23T23:51:50.106Z,4.40
2019-03-23T23:54:16.647Z,4.32
2019-03-23T23:56:47.965Z,4.23
2019-03-23T23:59:19.842Z,4.15
